sensor_id;sensor_type;location;lat;lon;timestamp;pressure;altitude;pressure_sealevel;temperature;humidity
48053;BME280;33824;51.600;5.718;2022-12-18T00:00:45;102699.44;;;-4.49;86.00
48053;BME280;33824;51.600;5.718;2022-12-18T00:03:35;102698.69;;;-4.54;86.36
48053;BME280;33824;51.600;5.718;2022-12-18T00:06:01;102691.66;;;-4.51;86.29
48053;BME280;33824;51.600;5.718;2022-12-18T00:08:27;102702.88;;;-4.49;86.24
48053;BME280;33824;51.600;5.718;2022-12-18T00:10:53;102702.88;;;-4.49;86.69
48053;BME280;33824;51.600;5.718;2022-12-18T00:13:19;102701.22;;;-4.51;86.49
48053;BME280;33824;51.600;5.718;2022-12-18T00:15:44;102691.69;;;-4.52;86.30
48053;BME280;33824;51.600;5.718;2022-12-18T00:18:10;102689.94;;;-4.52;86.33
48053;BME280;33824;51.600;5.718;2022-12-18T00:20:37;102690.00;;;-4.55;86.26
48053;BME280;33824;51.600;5.718;2022-12-18T00:23:02;102698.75;;;-4.57;86.12
48053;BME280;33824;51.600;5.718;2022-12-18T00:25:28;102697.06;;;-4.60;86.39
48053;BME280;33824;51.600;5.718;2022-12-18T00:27:53;102694.44;;;-4.60;86.18
48053;BME280;33824;51.600;5.718;2022-12-18T00:30:19;102693.59;;;-4.60;86.42
48053;BME280;33824;51.600;5.718;2022-12-18T00:32:44;102685.84;;;-4.63;85.79
48053;BME280;33824;51.600;5.718;2022-12-18T00:35:10;102685.91;;;-4.65;86.40
48053;BME280;33824;51.600;5.718;2022-12-18T00:37:35;102687.72;;;-4.68;85.94
48053;BME280;33824;51.600;5.718;2022-12-18T00:40:02;102692.97;;;-4.71;86.28
48053;BME280;33824;51.600;5.718;2022-12-18T00:42:28;102686.06;;;-4.72;85.76
48053;BME280;33824;51.600;5.718;2022-12-18T00:45:12;102686.06;;;-4.72;86.30
48053;BME280;33824;51.600;5.718;2022-12-18T00:47:38;102686.94;;;-4.73;86.34
48053;BME280;33824;51.600;5.718;2022-12-18T00:50:04;102692.16;;;-4.73;86.16
48053;BME280;33824;51.600;5.718;2022-12-18T00:52:29;102687.81;;;-4.74;86.06
48053;BME280;33824;51.600;5.718;2022-12-18T00:54:55;102682.66;;;-4.76;86.49
48053;BME280;33824;51.600;5.718;2022-12-18T00:57:20;102685.31;;;-4.79;86.49
48053;BME280;33824;51.600;5.718;2022-12-18T00:59:46;102693.19;;;-4.82;86.30
48053;BME280;33824;51.600;5.718;2022-12-18T01:02:13;102686.25;;;-4.83;85.98
48053;BME280;33824;51.600;5.718;2022-12-18T01:04:38;102680.25;;;-4.85;85.81
48053;BME280;33824;51.600;5.718;2022-12-18T01:07:04;102688.94;;;-4.86;86.02
48053;BME280;33824;51.600;5.718;2022-12-18T01:09:29;102688.13;;;-4.88;86.33
48053;BME280;33824;51.600;5.718;2022-12-18T01:11:55;102683.88;;;-4.94;86.41
48053;BME280;33824;51.600;5.718;2022-12-18T01:14:20;102684.81;;;-4.96;85.74
48053;BME280;33824;51.600;5.718;2022-12-18T01:16:46;102696.16;;;-5.00;86.06
48053;BME280;33824;51.600;5.718;2022-12-18T01:19:12;102694.44;;;-5.01;85.90
48053;BME280;33824;51.600;5.718;2022-12-18T01:21:37;102700.50;;;-5.01;85.25
48053;BME280;33824;51.600;5.718;2022-12-18T01:24:03;102704.91;;;-5.04;85.84
48053;BME280;33824;51.600;5.718;2022-12-18T01:26:28;102699.69;;;-5.03;85.58
48053;BME280;33824;51.600;5.718;2022-12-18T01:28:55;102704.06;;;-5.05;85.80
48053;BME280;33824;51.600;5.718;2022-12-18T01:31:30;102705.03;;;-5.10;85.42
48053;BME280;33824;51.600;5.718;2022-12-18T01:33:56;102706.69;;;-5.06;85.68
48053;BME280;33824;51.600;5.718;2022-12-18T01:36:28;102705.91;;;-5.11;85.33
48053;BME280;33824;51.600;5.718;2022-12-18T01:38:55;102704.19;;;-5.11;85.44
48053;BME280;33824;51.600;5.718;2022-12-18T01:41:27;102689.44;;;-5.12;85.13
48053;BME280;33824;51.600;5.718;2022-12-18T01:47:27;102682.75;;;-5.23;85.34
48053;BME280;33824;51.600;5.718;2022-12-18T01:49:57;102679.13;;;-5.15;85.71
48053;BME280;33824;51.600;5.718;2022-12-18T01:52:25;102685.19;;;-5.16;85.75
48053;BME280;33824;51.600;5.718;2022-12-18T01:54:54;102690.41;;;-5.16;85.54
48053;BME280;33824;51.600;5.718;2022-12-18T01:57:20;102692.13;;;-5.16;85.89
48053;BME280;33824;51.600;5.718;2022-12-18T01:59:49;102687.88;;;-5.20;85.61
48053;BME280;33824;51.600;5.718;2022-12-18T02:02:16;102684.41;;;-5.21;85.30
48053;BME280;33824;51.600;5.718;2022-12-18T02:04:42;102683.47;;;-5.17;85.86
48053;BME280;33824;51.600;5.718;2022-12-18T02:07:17;102676.75;;;-5.27;85.25
48053;BME280;33824;51.600;5.718;2022-12-18T02:09:53;102681.94;;;-5.25;85.57
48053;BME280;33824;51.600;5.718;2022-12-18T02:12:23;102684.47;;;-5.22;85.44
48053;BME280;33824;51.600;5.718;2022-12-18T02:17:29;102679.22;;;-5.21;85.49
48053;BME280;33824;51.600;5.718;2022-12-18T02:22:54;102684.53;;;-5.25;85.48
48053;BME280;33824;51.600;5.718;2022-12-18T02:26:04;102679.50;;;-5.36;85.17
48053;BME280;33824;51.600;5.718;2022-12-18T02:28:36;102680.25;;;-5.29;84.95
48053;BME280;33824;51.600;5.718;2022-12-18T02:31:07;102679.34;;;-5.28;84.93
48053;BME280;33824;51.600;5.718;2022-12-18T02:33:36;102676.75;;;-5.27;85.19
48053;BME280;33824;51.600;5.718;2022-12-18T02:36:02;102677.56;;;-5.25;85.37
48053;BME280;33824;51.600;5.718;2022-12-18T02:38:30;102681.00;;;-5.24;85.64
48053;BME280;33824;51.600;5.718;2022-12-18T02:40:56;102676.66;;;-5.22;85.39
48053;BME280;33824;51.600;5.718;2022-12-18T02:43:23;102678.38;;;-5.21;85.38
48053;BME280;33824;51.600;5.718;2022-12-18T02:45:52;102682.75;;;-5.25;85.22
48053;BME280;33824;51.600;5.718;2022-12-18T02:48:23;102672.53;;;-5.34;84.95
48053;BME280;33824;51.600;5.718;2022-12-18T02:51:16;102665.88;;;-5.49;84.51
48053;BME280;33824;51.600;5.718;2022-12-18T02:53:48;102668.31;;;-5.40;85.10
48053;BME280;33824;51.600;5.718;2022-12-18T02:56:19;102659.69;;;-5.43;85.12
48053;BME280;33824;51.600;5.718;2022-12-18T02:59:04;102657.22;;;-5.49;85.03
48053;BME280;33824;51.600;5.718;2022-12-18T03:01:57;102646.84;;;-5.51;84.94
48053;BME280;33824;51.600;5.718;2022-12-18T03:04:28;102650.28;;;-5.49;84.87
48053;BME280;33824;51.600;5.718;2022-12-18T03:06:58;102648.56;;;-5.48;85.37
48053;BME280;33824;51.600;5.718;2022-12-18T03:09:35;102646.06;;;-5.54;85.39
48053;BME280;33824;51.600;5.718;2022-12-18T03:12:09;102655.44;;;-5.47;85.44
48053;BME280;33824;51.600;5.718;2022-12-18T03:14:52;102656.34;;;-5.48;85.09
48053;BME280;33824;51.600;5.718;2022-12-18T03:17:20;102655.13;;;-5.76;85.44
48053;BME280;33824;51.600;5.718;2022-12-18T03:19:48;102646.19;;;-5.60;85.31
48053;BME280;33824;51.600;5.718;2022-12-18T03:22:16;102649.56;;;-5.57;85.73
48053;BME280;33824;51.600;5.718;2022-12-18T03:24:42;102646.03;;;-5.53;85.33
48053;BME280;33824;51.600;5.718;2022-12-18T03:27:11;102646.94;;;-5.55;85.66
48053;BME280;33824;51.600;5.718;2022-12-18T03:29:43;102650.38;;;-5.55;85.35
48053;BME280;33824;51.600;5.718;2022-12-18T03:32:16;102650.34;;;-5.52;85.82
48053;BME280;33824;51.600;5.718;2022-12-18T03:34:48;102652.91;;;-5.50;86.03
48053;BME280;33824;51.600;5.718;2022-12-18T03:37:14;102655.44;;;-5.47;86.11
48053;BME280;33824;51.600;5.718;2022-12-18T03:39:40;102648.56;;;-5.48;86.02
48053;BME280;33824;51.600;5.718;2022-12-18T03:44:45;102643.38;;;-5.50;86.54
48053;BME280;33824;51.600;5.718;2022-12-18T03:47:16;102639.03;;;-5.49;86.30
48053;BME280;33824;51.600;5.718;2022-12-18T03:52:33;102634.78;;;-5.53;85.67
48053;BME280;33824;51.600;5.718;2022-12-18T03:55:01;102627.53;;;-5.84;85.61
48053;BME280;33824;51.600;5.718;2022-12-18T03:57:28;102619.41;;;-5.65;85.65
48053;BME280;33824;51.600;5.718;2022-12-18T03:59:58;102617.59;;;-5.60;86.18
48053;BME280;33824;51.600;5.718;2022-12-18T04:02:25;102617.53;;;-5.57;86.24
48053;BME280;33824;51.600;5.718;2022-12-18T04:04:57;102612.41;;;-5.62;85.80
48053;BME280;33824;51.600;5.718;2022-12-18T04:07:24;102614.03;;;-5.56;86.01
48053;BME280;33824;51.600;5.718;2022-12-18T04:09:53;102604.53;;;-5.59;86.32
48053;BME280;33824;51.600;5.718;2022-12-18T04:12:20;102606.25;;;-5.58;85.40
48053;BME280;33824;51.600;5.718;2022-12-18T04:14:46;102597.66;;;-5.60;86.00
48053;BME280;33824;51.600;5.718;2022-12-18T04:17:11;102602.00;;;-5.60;85.86
48053;BME280;33824;51.600;5.718;2022-12-18T04:19:37;102595.06;;;-5.61;85.54
48053;BME280;33824;51.600;5.718;2022-12-18T04:22:02;102595.00;;;-5.58;85.82
48053;BME280;33824;51.600;5.718;2022-12-18T04:24:28;102588.06;;;-5.56;86.15
48053;BME280;33824;51.600;5.718;2022-12-18T04:26:53;102584.56;;;-5.55;85.75
48053;BME280;33824;51.600;5.718;2022-12-18T04:29:19;102576.72;;;-5.54;86.01
48053;BME280;33824;51.600;5.718;2022-12-18T04:31:44;102585.41;;;-5.53;85.74
48053;BME280;33824;51.600;5.718;2022-12-18T04:34:10;102585.41;;;-5.53;85.76
48053;BME280;33824;51.600;5.718;2022-12-18T04:36:36;102586.19;;;-5.50;85.99
48053;BME280;33824;51.600;5.718;2022-12-18T04:39:02;102593.09;;;-5.49;85.85
48053;BME280;33824;51.600;5.718;2022-12-18T04:41:28;102584.44;;;-5.49;85.67
48053;BME280;33824;51.600;5.718;2022-12-18T04:43:53;102576.66;;;-5.49;86.08
48053;BME280;33824;51.600;5.718;2022-12-18T04:46:19;102594.78;;;-5.48;85.93
48053;BME280;33824;51.600;5.718;2022-12-18T04:48:45;102593.09;;;-5.49;85.84
48053;BME280;33824;51.600;5.718;2022-12-18T04:51:12;102598.31;;;-5.50;85.80
48053;BME280;33824;51.600;5.718;2022-12-18T04:53:38;102604.41;;;-5.51;85.71
48053;BME280;33824;51.600;5.718;2022-12-18T04:56:05;102597.53;;;-5.54;86.08
48053;BME280;33824;51.600;5.718;2022-12-18T04:58:32;102607.84;;;-5.49;85.55
48053;BME280;33824;51.600;5.718;2022-12-18T05:00:57;102604.38;;;-5.48;86.04
48053;BME280;33824;51.600;5.718;2022-12-18T05:03:23;102610.31;;;-5.43;85.64
48053;BME280;33824;51.600;5.718;2022-12-18T05:05:50;102612.03;;;-5.41;85.66
48053;BME280;33824;51.600;5.718;2022-12-18T05:08:16;102612.91;;;-5.42;85.32
48053;BME280;33824;51.600;5.718;2022-12-18T05:10:42;102625.03;;;-5.42;85.28
48053;BME280;33824;51.600;5.718;2022-12-18T05:13:07;102632.81;;;-5.41;85.46
48053;BME280;33824;51.600;5.718;2022-12-18T05:15:33;102642.31;;;-5.40;85.28
48053;BME280;33824;51.600;5.718;2022-12-18T05:18:00;102641.44;;;-5.40;85.01
48053;BME280;33824;51.600;5.718;2022-12-18T05:20:26;102647.50;;;-5.40;85.60
48053;BME280;33824;51.600;5.718;2022-12-18T05:22:52;102642.31;;;-5.40;85.82
48053;BME280;33824;51.600;5.718;2022-12-18T05:25:18;102638.84;;;-5.40;85.34
48053;BME280;33824;51.600;5.718;2022-12-18T05:27:44;102637.16;;;-5.41;85.50
48053;BME280;33824;51.600;5.718;2022-12-18T05:30:10;102641.44;;;-5.40;85.77
48053;BME280;33824;51.600;5.718;2022-12-18T05:32:37;102640.50;;;-5.36;85.00
48053;BME280;33824;51.600;5.718;2022-12-18T05:35:03;102625.75;;;-5.36;85.45
48053;BME280;33824;51.600;5.718;2022-12-18T05:37:29;102630.97;;;-5.36;85.29
48053;BME280;33824;51.600;5.718;2022-12-18T05:39:54;102632.69;;;-5.36;85.75
48053;BME280;33824;51.600;5.718;2022-12-18T05:42:20;102635.28;;;-5.33;85.37
48053;BME280;33824;51.600;5.718;2022-12-18T05:44:45;102632.56;;;-5.28;86.07
48053;BME280;33824;51.600;5.718;2022-12-18T05:47:11;102629.13;;;-5.29;85.46
48053;BME280;33824;51.600;5.718;2022-12-18T05:49:36;102626.47;;;-5.26;85.34
48053;BME280;33824;51.600;5.718;2022-12-18T05:52:02;102622.13;;;-5.27;85.44
48053;BME280;33824;51.600;5.718;2022-12-18T05:54:28;102614.34;;;-5.27;85.35
48053;BME280;33824;51.600;5.718;2022-12-18T05:56:53;102610.84;;;-5.26;85.75
48053;BME280;33824;51.600;5.718;2022-12-18T05:59:21;102608.28;;;-5.27;85.68
48053;BME280;33824;51.600;5.718;2022-12-18T06:01:47;102599.53;;;-5.25;85.54
48053;BME280;33824;51.600;5.718;2022-12-18T06:04:13;102599.63;;;-5.28;85.37
48053;BME280;33824;51.600;5.718;2022-12-18T06:06:38;102597.84;;;-5.26;86.23
48053;BME280;33824;51.600;5.718;2022-12-18T06:09:04;102590.00;;;-5.24;85.42
48053;BME280;33824;51.600;5.718;2022-12-18T06:11:35;102583.03;;;-5.22;85.48
48053;BME280;33824;51.600;5.718;2022-12-18T06:14:01;102580.41;;;-5.21;85.38
48053;BME280;33824;51.600;5.718;2022-12-18T06:16:28;102576.97;;;-5.21;86.10
48053;BME280;33824;51.600;5.718;2022-12-18T06:18:57;102583.06;;;-5.24;86.25
48053;BME280;33824;51.600;5.718;2022-12-18T06:21:23;102581.16;;;-5.14;86.09
48053;BME280;33824;51.600;5.718;2022-12-18T06:23:49;102583.69;;;-5.13;86.01
48053;BME280;33824;51.600;5.718;2022-12-18T06:26:15;102582.88;;;-5.15;85.68
48053;BME280;33824;51.600;5.718;2022-12-18T06:28:40;102572.41;;;-5.10;85.77
48053;BME280;33824;51.600;5.718;2022-12-18T06:31:06;102578.47;;;-5.11;85.91
48053;BME280;33824;51.600;5.718;2022-12-18T06:33:32;102568.06;;;-5.11;85.77
48053;BME280;33824;51.600;5.718;2022-12-18T06:36:03;102574.22;;;-5.14;85.87
48053;BME280;33824;51.600;5.718;2022-12-18T06:38:29;102576.59;;;-5.05;85.91
48053;BME280;33824;51.600;5.718;2022-12-18T06:40:55;102574.88;;;-5.06;86.58
48053;BME280;33824;51.600;5.718;2022-12-18T06:43:20;102567.91;;;-5.04;86.16
48053;BME280;33824;51.600;5.718;2022-12-18T06:45:46;102571.28;;;-5.00;86.33
48053;BME280;33824;51.600;5.718;2022-12-18T06:48:20;102570.38;;;-4.98;86.43
48053;BME280;33824;51.600;5.718;2022-12-18T06:50:46;102573.81;;;-4.96;86.02
48053;BME280;33824;51.600;5.718;2022-12-18T06:53:12;102566.88;;;-4.95;86.53
48053;BME280;33824;51.600;5.718;2022-12-18T06:55:37;102566.88;;;-4.95;86.80
48053;BME280;33824;51.600;5.718;2022-12-18T06:58:03;102566.81;;;-4.94;86.37
48053;BME280;33824;51.600;5.718;2022-12-18T07:00:28;102571.06;;;-4.90;86.86
48053;BME280;33824;51.600;5.718;2022-12-18T07:02:54;102558.91;;;-4.89;86.82
48053;BME280;33824;51.600;5.718;2022-12-18T07:05:19;102557.09;;;-4.86;86.67
48053;BME280;33824;51.600;5.718;2022-12-18T07:07:45;102557.84;;;-4.80;87.12
48053;BME280;33824;51.600;5.718;2022-12-18T07:10:11;102550.03;;;-4.80;86.75
48053;BME280;33824;51.600;5.718;2022-12-18T07:12:36;102551.78;;;-4.79;86.82
48053;BME280;33824;51.600;5.718;2022-12-18T07:15:02;102549.16;;;-4.79;86.10
48053;BME280;33824;51.600;5.718;2022-12-18T07:17:28;102553.53;;;-4.81;86.32
48053;BME280;33824;51.600;5.718;2022-12-18T07:19:55;102549.22;;;-4.82;86.10
48053;BME280;33824;51.600;5.718;2022-12-18T07:22:21;102538.81;;;-4.82;85.73
48053;BME280;33824;51.600;5.718;2022-12-18T07:24:46;102531.84;;;-4.82;85.98
48053;BME280;33824;51.600;5.718;2022-12-18T07:27:12;102524.06;;;-4.82;86.15
48053;BME280;33824;51.600;5.718;2022-12-18T07:29:37;102526.63;;;-4.80;86.08
48053;BME280;33824;51.600;5.718;2022-12-18T07:32:03;102536.97;;;-4.79;86.86
48053;BME280;33824;51.600;5.718;2022-12-18T07:34:29;102544.75;;;-4.77;86.42
48053;BME280;33824;51.600;5.718;2022-12-18T07:36:54;102531.78;;;-4.79;86.16
48053;BME280;33824;51.600;5.718;2022-12-18T07:39:20;102536.97;;;-4.77;85.91
48053;BME280;33824;51.600;5.718;2022-12-18T07:41:45;102528.19;;;-4.73;86.40
48053;BME280;33824;51.600;5.718;2022-12-18T07:44:31;102529.84;;;-4.71;86.92
48053;BME280;33824;51.600;5.718;2022-12-18T07:46:56;102521.97;;;-4.68;86.54
48053;BME280;33824;51.600;5.718;2022-12-18T07:49:22;102507.19;;;-4.66;86.84
48053;BME280;33824;51.600;5.718;2022-12-18T07:51:49;102504.47;;;-4.61;86.18
48053;BME280;33824;51.600;5.718;2022-12-18T07:54:15;102496.56;;;-4.57;86.95
48053;BME280;33824;51.600;5.718;2022-12-18T07:56:40;102493.88;;;-4.54;86.37
48053;BME280;33824;51.600;5.718;2022-12-18T07:59:07;102498.06;;;-4.48;86.94
48053;BME280;33824;51.600;5.718;2022-12-18T08:01:33;102485.78;;;-4.42;86.35
48053;BME280;33824;51.600;5.718;2022-12-18T08:03:58;102493.44;;;-4.37;86.55
48053;BME280;33824;51.600;5.718;2022-12-18T08:06:24;102482.88;;;-4.31;87.09
48053;BME280;33824;51.600;5.718;2022-12-18T08:08:52;102476.59;;;-4.22;87.01
48053;BME280;33824;51.600;5.718;2022-12-18T08:11:17;102469.47;;;-4.16;86.60
48053;BME280;33824;51.600;5.718;2022-12-18T08:13:43;102484.03;;;-4.09;86.71
48053;BME280;33824;51.600;5.718;2022-12-18T08:16:08;102486.41;;;-4.00;87.36
48053;BME280;33824;51.600;5.718;2022-12-18T08:18:36;102481.91;;;-3.95;87.28
48053;BME280;33824;51.600;5.718;2022-12-18T08:21:13;102484.47;;;-3.93;87.24
48053;BME280;33824;51.600;5.718;2022-12-18T08:23:40;102488.41;;;-3.78;86.77
48053;BME280;33824;51.600;5.718;2022-12-18T08:26:05;102485.69;;;-3.74;87.29
48053;BME280;33824;51.600;5.718;2022-12-18T08:28:31;102482.00;;;-3.67;86.58
48053;BME280;33824;51.600;5.718;2022-12-18T08:30:57;102489.63;;;-3.61;86.74
48053;BME280;33824;51.600;5.718;2022-12-18T08:33:23;102492.94;;;-3.54;86.15
48053;BME280;33824;51.600;5.718;2022-12-18T08:35:48;102494.59;;;-3.52;86.50
48053;BME280;33824;51.600;5.718;2022-12-18T08:38:14;102486.53;;;-3.44;86.59
48053;BME280;33824;51.600;5.718;2022-12-18T08:40:39;102479.47;;;-3.41;86.25
48053;BME280;33824;51.600;5.718;2022-12-18T08:43:05;102484.56;;;-3.36;86.23
48053;BME280;33824;51.600;5.718;2022-12-18T08:45:50;102494.06;;;-3.33;86.37
48053;BME280;33824;51.600;5.718;2022-12-18T08:48:15;102493.09;;;-3.31;86.10
48053;BME280;33824;51.600;5.718;2022-12-18T08:50:41;102490.41;;;-3.28;86.23
48053;BME280;33824;51.600;5.718;2022-12-18T08:53:06;102476.38;;;-3.24;86.29
48053;BME280;33824;51.600;5.718;2022-12-18T08:55:32;102459.75;;;-3.20;86.01
48053;BME280;33824;51.600;5.718;2022-12-18T08:57:57;102448.31;;;-3.16;86.29
48053;BME280;33824;51.600;5.718;2022-12-18T09:00:23;102452.38;;;-3.07;85.99
48053;BME280;33824;51.600;5.718;2022-12-18T09:02:48;102452.97;;;-2.99;85.23
48053;BME280;33824;51.600;5.718;2022-12-18T09:05:14;102450.09;;;-2.90;86.10
48053;BME280;33824;51.600;5.718;2022-12-18T09:07:40;102463.78;;;-2.83;86.03
48053;BME280;33824;51.600;5.718;2022-12-18T09:10:05;102453.13;;;-2.77;85.62
48053;BME280;33824;51.600;5.718;2022-12-18T09:12:31;102448.63;;;-2.72;85.83
48053;BME280;33824;51.600;5.718;2022-12-18T09:14:57;102463.19;;;-2.65;84.99
48053;BME280;33824;51.600;5.718;2022-12-18T09:17:23;102469.00;;;-2.57;85.45
48053;BME280;33824;51.600;5.718;2022-12-18T09:19:48;102458.44;;;-2.53;85.51
48053;BME280;33824;51.600;5.718;2022-12-18T09:22:14;102456.44;;;-2.46;85.41
48053;BME280;33824;51.600;5.718;2022-12-18T09:24:42;102456.25;;;-2.40;85.99
48053;BME280;33824;51.600;5.718;2022-12-18T09:27:07;102457.78;;;-2.34;85.92
48053;BME280;33824;51.600;5.718;2022-12-18T09:29:33;102474.09;;;-2.28;85.32
48053;BME280;33824;51.600;5.718;2022-12-18T09:31:58;102477.47;;;-2.24;84.61
48053;BME280;33824;51.600;5.718;2022-12-18T09:34:24;102472.84;;;-2.16;85.28
48053;BME280;33824;51.600;5.718;2022-12-18T09:36:50;102480.50;;;-2.12;85.21
48053;BME280;33824;51.600;5.718;2022-12-18T09:39:15;102482.09;;;-2.06;85.29
48053;BME280;33824;51.600;5.718;2022-12-18T09:41:45;102480.06;;;-1.98;85.12
48053;BME280;33824;51.600;5.718;2022-12-18T09:49:35;102463.91;;;-1.86;84.36
48053;BME280;33824;51.600;5.718;2022-12-18T09:52:12;102464.72;;;-1.84;84.63
48053;BME280;33824;51.600;5.718;2022-12-18T09:54:40;102457.34;;;-1.73;84.85
48053;BME280;33824;51.600;5.718;2022-12-18T09:57:15;102455.41;;;-1.68;84.81
48053;BME280;33824;51.600;5.718;2022-12-18T09:59:44;102450.81;;;-1.61;84.74
48053;BME280;33824;51.600;5.718;2022-12-18T10:02:21;102434.22;;;-1.60;83.84
48053;BME280;33824;51.600;5.718;2022-12-18T10:05:04;102424.66;;;-1.61;83.78
48053;BME280;33824;51.600;5.718;2022-12-18T10:07:37;102425.78;;;-1.45;83.58
48053;BME280;33824;51.600;5.718;2022-12-18T10:13:08;102422.91;;;-1.39;83.72
48053;BME280;33824;51.600;5.718;2022-12-18T10:15:44;102426.56;;;-1.21;83.98
48053;BME280;33824;51.600;5.718;2022-12-18T10:18:23;102423.91;;;-1.20;83.84
48053;BME280;33824;51.600;5.718;2022-12-18T10:21:00;102424.44;;;-1.12;83.32
48053;BME280;33824;51.600;5.718;2022-12-18T10:23:50;102425.34;;;-1.13;83.28
48053;BME280;33824;51.600;5.718;2022-12-18T10:26:21;102426.47;;;-0.97;83.49
48053;BME280;33824;51.600;5.718;2022-12-18T10:28:46;102431.31;;;-0.87;82.94
48053;BME280;33824;51.600;5.718;2022-12-18T10:31:16;102418.88;;;-0.82;83.79
48053;BME280;33824;51.600;5.718;2022-12-18T10:33:42;102414.13;;;-0.73;83.12
48053;BME280;33824;51.600;5.718;2022-12-18T10:36:08;102420.94;;;-0.69;82.55
48053;BME280;33824;51.600;5.718;2022-12-18T10:38:35;102408.56;;;-0.65;82.51
48053;BME280;33824;51.600;5.718;2022-12-18T10:43:37;102404.38;;;-0.69;81.34
48053;BME280;33824;51.600;5.718;2022-12-18T10:48:47;102391.69;;;-0.58;80.84
48053;BME280;33824;51.600;5.718;2022-12-18T10:53:55;102373.63;;;-0.45;80.57
48053;BME280;33824;51.600;5.718;2022-12-18T10:56:21;102373.13;;;-0.33;80.97
48053;BME280;33824;51.600;5.718;2022-12-18T10:59:16;102363.97;;;-0.43;79.80
48053;BME280;33824;51.600;5.718;2022-12-18T11:01:48;102352.84;;;-0.30;80.76
48053;BME280;33824;51.600;5.718;2022-12-18T11:04:21;102358.00;;;-0.47;79.79
48053;BME280;33824;51.600;5.718;2022-12-18T11:06:59;102347.00;;;-0.35;79.92
48053;BME280;33824;51.600;5.718;2022-12-18T11:09:30;102347.50;;;-0.27;80.61
48053;BME280;33824;51.600;5.718;2022-12-18T11:12:03;102338.66;;;-0.24;79.95
48053;BME280;33824;51.600;5.718;2022-12-18T11:14:50;102337.78;;;-0.25;79.41
48053;BME280;33824;51.600;5.718;2022-12-18T11:17:37;102339.34;;;-0.21;79.78
48053;BME280;33824;51.600;5.718;2022-12-18T11:20:20;102333.81;;;-0.15;79.10
48053;BME280;33824;51.600;5.718;2022-12-18T11:22:58;102346.59;;;-0.07;79.50
48053;BME280;33824;51.600;5.718;2022-12-18T11:25:25;102341.69;;;0.04;79.29
48053;BME280;33824;51.600;5.718;2022-12-18T11:27:55;102347.75;;;0.06;78.74
48053;BME280;33824;51.600;5.718;2022-12-18T11:30:23;102335.41;;;0.08;78.66
48053;BME280;33824;51.600;5.718;2022-12-18T11:32:56;102321.53;;;0.06;78.39
48053;BME280;33824;51.600;5.718;2022-12-18T11:35:31;102318.53;;;0.14;78.06
48053;BME280;33824;51.600;5.718;2022-12-18T11:38:04;102321.00;;;0.17;78.19
48053;BME280;33824;51.600;5.718;2022-12-18T11:40:35;102324.19;;;0.23;78.37
48053;BME280;33824;51.600;5.718;2022-12-18T11:43:13;102322.44;;;0.24;78.31
48053;BME280;33824;51.600;5.718;2022-12-18T11:45:59;102326.91;;;0.22;78.13
48053;BME280;33824;51.600;5.718;2022-12-18T11:48:49;102325.06;;;0.24;77.65
48053;BME280;33824;51.600;5.718;2022-12-18T11:51:25;102319.38;;;0.33;78.37
48053;BME280;33824;51.600;5.718;2022-12-18T11:53:53;102324.41;;;0.37;77.71
48053;BME280;33824;51.600;5.718;2022-12-18T11:56:43;102312.56;;;0.29;77.28
48053;BME280;33824;51.600;5.718;2022-12-18T12:01:43;102303.34;;;0.39;78.03
48053;BME280;33824;51.600;5.718;2022-12-18T12:07:12;102309.22;;;0.44;77.31
48053;BME280;33824;51.600;5.718;2022-12-18T12:10:18;102302.19;;;0.44;77.57
48053;BME280;33824;51.600;5.718;2022-12-18T12:13:12;102284.69;;;0.45;77.04
48053;BME280;33824;51.600;5.718;2022-12-18T12:16:13;102282.81;;;0.47;76.35
48053;BME280;33824;51.600;5.718;2022-12-18T12:18:44;102279.75;;;0.56;76.90
48053;BME280;33824;51.600;5.718;2022-12-18T12:27:39;102267.41;;;0.58;76.81
48053;BME280;33824;51.600;5.718;2022-12-18T12:30:19;102278.81;;;0.57;76.57
48053;BME280;33824;51.600;5.718;2022-12-18T12:35:58;102263.81;;;0.61;76.32
48053;BME280;33824;51.600;5.718;2022-12-18T12:38:41;102262.84;;;0.62;75.29
48053;BME280;33824;51.600;5.718;2022-12-18T12:41:15;102252.06;;;0.68;76.05
48053;BME280;33824;51.600;5.718;2022-12-18T12:44:03;102242.25;;;0.71;75.29
48053;BME280;33824;51.600;5.718;2022-12-18T12:46:34;102249.22;;;0.72;75.29
48053;BME280;33824;51.600;5.718;2022-12-18T12:49:03;102245.56;;;0.75;75.33
48053;BME280;33824;51.600;5.718;2022-12-18T12:51:34;102246.22;;;0.80;75.66
48053;BME280;33824;51.600;5.718;2022-12-18T12:54:01;102230.13;;;0.86;75.58
48053;BME280;33824;51.600;5.718;2022-12-18T12:56:50;102224.41;;;0.78;74.82
48053;BME280;33824;51.600;5.718;2022-12-18T12:59:31;102211.13;;;0.81;74.46
48053;BME280;33824;51.600;5.718;2022-12-18T13:02:31;102218.41;;;0.76;74.28
48053;BME280;33824;51.600;5.718;2022-12-18T13:08:11;102218.00;;;0.83;74.78
48053;BME280;33824;51.600;5.718;2022-12-18T13:10:39;102206.44;;;0.87;74.66
48053;BME280;33824;51.600;5.718;2022-12-18T13:13:07;102202.00;;;0.88;74.43
48053;BME280;33824;51.600;5.718;2022-12-18T13:15:41;102195.81;;;0.89;73.84
48053;BME280;33824;51.600;5.718;2022-12-18T13:20:42;102187.19;;;0.87;73.23
48053;BME280;33824;51.600;5.718;2022-12-18T13:30:59;102191.09;;;0.95;73.79
48053;BME280;33824;51.600;5.718;2022-12-18T13:36:09;102180.59;;;0.95;73.10
48053;BME280;33824;51.600;5.718;2022-12-18T13:38:36;102176.13;;;0.98;73.45
48053;BME280;33824;51.600;5.718;2022-12-18T13:43:46;102183.22;;;0.95;73.21
48053;BME280;33824;51.600;5.718;2022-12-18T13:49:14;102192.06;;;0.94;73.50
48053;BME280;33824;51.600;5.718;2022-12-18T13:51:44;102177.16;;;0.95;73.01
48053;BME280;33824;51.600;5.718;2022-12-18T13:54:24;102176.53;;;0.90;72.54
48053;BME280;33824;51.600;5.718;2022-12-18T13:56:52;102173.66;;;0.94;73.02
48053;BME280;33824;51.600;5.718;2022-12-18T13:59:25;102165.84;;;0.93;72.68
48053;BME280;33824;51.600;5.718;2022-12-18T14:01:57;102149.06;;;0.95;72.99
48053;BME280;33824;51.600;5.718;2022-12-18T14:04:28;102157.06;;;0.94;72.75
48053;BME280;33824;51.600;5.718;2022-12-18T14:07:14;102153.06;;;0.87;72.75
48053;BME280;33824;51.600;5.718;2022-12-18T14:09:43;102151.72;;;0.95;72.72
48053;BME280;33824;51.600;5.718;2022-12-18T14:12:16;102156.28;;;0.92;72.60